Kenosha Regional Airport
KENW : now visible

Airfield :











YOU CAN JOIN US ON...

 
LOGIN :

Register | Disclaimer

   EN    FR    IT 

 









Legend :    VFR   Marginal VFR   IFR   Intensive IFR   Very Intensive IFR
Visi :
Ceiling :
>= 8 km
>= 3000ft
5 to 8 km
1000 to 3000 ft
1500m to 5 km
500 to 1000 ft
800 to 1500m
200 to 500 ft
< 800m
< 200 ft
Symbols :   Thunderstorms  Fog  Heavy snow  Heavy precipitations  Wind > 20 kt






- Airport Elevation : 742 ft


KENW - Kenosha Regional

CURRENT METAR :
  • 211453Z 30007G19KT 10SM OVC021 09/03 A3019 RMK AO2 SLP225 T00890033 53022

EXPIRED METARs :
  • 211353Z 27008KT 10SM OVC025 09/04 A3016 RMK AO2 SLP216 T00890044
  • 211253Z 27007KT 10SM BKN013 OVC020 08/05 A3014 RMK AO2 SLP210 T00830050

TAF KENW
Valid from the 21 at 14:00 until the 22 at 12:00 UTC


211338Z 2114/2212 27009KT P6SM BKN015
FM211600 28010KT P6SM BKN040
FM220300 07004KT P6SM VCSH BKN070
FM220900 07009KT 6SM SHRA BR OVC029
FM221100 08011G19KT 6SM SHRA BR OVC016
KZAU FIR / North America



MET'MAP, your aeronautical weather chart ! - Copyright ORBIFLY December 2007 - Disclaimer

ORBIFLY MET'MAP TEAM :

Programming & Development : Alexandra Zaïnal
Concept & original design : Baudouin d'Aumeries
Assistance for programming : Marc-Olivier Méhu
Technical & hardware support : Manuel Goepfert

Contact : metmap@orbifly.com




SOURCES & CREDITS :

   NOAA       Earth
Advisory